Latest Weather Observations for Coconut Island

IDQ60801

Issued at 8:02 pm EST Sunday 26 February 2017 (issued every 30 minutes, with the page automatically refreshed every 10 minutes)

About weather observations | Map of weather stations | Latest weather observations for QLD | Other Formats
Station Details ID: 027054 Name: COCONUT ISLAND Lat: -10.05 Lon: 143.07 Height: 3.5 m
Data from the previous 72 hours. | See also: Recent months at Coconut Island
Date/Time
EST
Temp
°C
App
Temp
°C
Dew
Point
°C
Rel
Hum
%
Delta-T
°C
Wind Press
QNH
hPa
Press
MSL
hPa
Rain since
9am
mm
Dir  Spd
km/h
Gust
km/h
Spd
kts
Gust
kts
26/07:30pm 26.4 - - - - CALM 0 0 0 0 1006.9 1006.8 3.0
26/07:00pm 26.6 - - - - ESE 2 6 1 3 1006.4 1006.3 3.0
26/06:30pm 27.1 - - - - CALM 0 0 0 0 1006.0 1005.9 3.0
26/06:00pm 27.8 - - - - CALM 0 0 0 0 1005.8 1005.7 3.0
26/05:30pm 28.3 - - - - CALM 0 0 0 0 1005.7 1005.6 3.0
26/05:00pm 28.3 - - - - CALM 0 2 0 1 1005.8 1005.7 3.0
26/04:30pm 28.3 - - - - W 4 7 2 4 1005.9 1005.8 3.0
26/04:00pm 28.2 - - - - SW 2 4 1 2 1005.9 1005.8 3.0
26/03:30pm 28.4 - - - - CALM 0 4 0 2 1005.8 1005.7 3.0
26/03:00pm 28.1 - - - - N 4 6 2 3 1005.9 1005.8 3.0
26/02:30pm 28.6 - - - - NNW 6 7 3 4 1006.2 1006.1 3.0
26/02:00pm 29.4 - - - - - - - - - 1006.5 1006.4 3.0
26/01:30pm 29.5 - - - - NW 4 6 2 3 1006.9 1006.8 3.0
26/01:00pm 28.7 - - - - W 4 7 2 4 1007.3 1007.2 3.0
26/12:30pm 27.9 - - - - W 4 7 2 4 1007.6 1007.5 3.0
26/12:00pm 29.2 - - - - - - - - - 1008.5 1008.4 3.0
26/11:30am 28.4 - - - - - - - - - 1009.0 1008.9 3.0
26/11:00am 27.1 - - - - - - - - - 1009.0 1008.9 3.0
26/10:30am 25.8 - - - - - - - - - 1009.3 1009.2 2.8
26/10:00am 25.4 - - - - - - - - - 1009.3 1009.2 2.2
26/09:30am 25.1 - - - - - - - - - 1009.4 1009.3 1.0
26/09:00am 24.7 - - - - - - - - - 1009.4 1009.3 43.2
26/08:30am 24.7 - - - - - - - - - 1009.3 1009.2 41.6
26/08:00am 24.5 - - - - - - - - - 1008.7 1008.6 40.6
26/07:30am 24.3 - - - - - - - - - 1008.1 1008.0 40.0
26/07:00am 24.4 - - - - - - - - - 1007.6 1007.5 39.4
26/06:30am 24.4 - - - - - - - - - 1007.3 1007.2 39.2
26/06:00am 24.9 - - - - - - - - - 1007.5 1007.4 39.0
26/05:30am 23.7 - - - - E 6 7 3 4 1007.1 1007.0 38.8
26/05:00am 23.4 - - - - E 7 9 4 5 1007.0 1006.9 38.6
26/04:30am 23.6 - - - - E 7 15 4 8 1006.6 1006.5 37.4
26/04:00am 24.1 - - - - ESE 9 19 5 10 1006.9 1006.8 36.4
26/03:30am 24.3 - - - - E 6 15 3 8 1007.4 1007.3 32.6
26/03:00am 24.3 - - - - CALM 0 0 0 0 1007.2 1007.1 31.2
26/02:30am 24.9 - - - - SSE 2 6 1 3 1007.1 1007.0 28.0
26/02:00am 25.4 - - - - NE 13 19 7 10 1007.4 1007.3 15.6
26/01:30am 25.8 - - - - W 6 9 3 5 1007.2 1007.1 9.0
26/01:00am 25.6 - - - - W 4 7 2 4 1007.8 1007.7 9.0
26/12:30am 26.7 - - - - NNW 13 20 7 11 1008.3 1008.2 5.4
26/12:00am 26.8 - - - - N 19 30 10 16 1008.5 1008.4 4.6
 
Date/Time
EST
Temp
°C
App
Temp
°C
Dew
Point
°C
Rel
Hum
%
Delta-T
°C
Wind Press
QNH
hPa
Press
MSL
hPa
Rain since
9am
mm
Dir  Spd
km/h
Gust
km/h
Spd
kts
Gust
kts
25/11:30pm 27.9 - - - - NNE 15 20 8 11 1008.6 1008.5 3.0
25/11:00pm 28.2 - - - - NE 13 19 7 10 1009.0 1008.9 3.0
25/10:30pm 27.7 - - - - NNE 11 15 6 8 1009.1 1009.0 3.0
25/10:00pm 27.7 - - - - NE 11 24 6 13 1008.8 1008.7 3.0
25/09:30pm 27.2 - - - - CALM 0 2 0 1 1008.8 1008.7 3.0
25/09:00pm 27.1 - - - - E 4 6 2 3 1008.8 1008.7 3.0
25/08:30pm 27.1 - - - - E 2 4 1 2 1008.2 1008.1 3.0
25/08:00pm 27.2 - - - - CALM 0 0 0 0 1007.9 1007.8 3.0
25/07:30pm 27.3 - - - - CALM 0 0 0 0 1007.7 1007.6 3.0
25/07:00pm 27.7 - - - - CALM 0 2 0 1 1007.3 1007.2 3.0
25/06:30pm 28.7 - - - - W 2 4 1 2 1007.0 1006.9 3.0
25/06:00pm 29.6 - - - - NNW 4 7 2 4 1006.7 1006.6 3.0
25/05:30pm 29.9 - - - - NW 6 7 3 4 1006.4 1006.3 3.0
25/05:00pm 30.3 - - - - WNW 2 6 1 3 1006.0 1005.9 3.0
25/04:30pm 30.7 - - - - W 4 6 2 3 1005.7 1005.6 3.0
25/04:00pm 30.2 - - - - NNW 4 9 2 5 1005.9 1005.8 3.0
25/03:30pm 30.2 - - - - NNW 7 9 4 5 1006.4 1006.3 3.0
25/03:00pm 31.5 - - - - SE 2 4 1 2 1006.7 1006.6 3.0
25/02:30pm 32.2 - - - - SE 4 6 2 3 1007.1 1007.0 3.0
25/02:00pm 32.3 - - - - SE 2 6 1 3 1007.4 1007.3 3.0
25/01:30pm 32.8 - - - - SE 4 7 2 4 1007.5 1007.4 3.0
25/01:00pm 32.1 - - - - SE 4 7 2 4 1008.0 1007.9 3.0
25/12:30pm 31.3 - - - - SSE 2 7 1 4 1008.6 1008.5 3.0
25/12:00pm 29.7 - - - - SSW 2 4 1 2 1008.9 1008.8 2.8
25/11:30am 31.1 - - - - SE 2 11 1 6 1009.6 1009.5 0.2
25/11:00am 30.6 - - - - SE 2 4 1 2 1009.9 1009.8 0.2
25/10:30am 29.2 - - - - CALM 0 2 0 1 1010.0 1009.9 0.2
25/10:00am 28.5 - - - - - - - - - 1009.9 1009.8 0.0
25/09:30am 26.9 - - - - E 4 7 2 4 1010.0 1009.9 0.0
25/09:00am 25.7 - - - - E 4 6 2 3 1010.0 1009.9 7.2
25/08:30am 25.2 - - - - ENE 9 17 5 9 1009.9 1009.8 7.2
25/08:00am 25.8 - - - - SE 6 22 3 12 1009.8 1009.7 6.0
25/07:30am 26.3 - - - - SSE 6 13 3 7 1009.3 1009.2 4.4
25/07:00am 27.2 - - - - CALM 0 0 0 0 1009.0 1008.9 0.0
25/06:30am 26.8 - - - - CALM 0 0 0 0 1008.5 1008.4 0.0
25/06:00am 26.9 - - - - CALM 0 0 0 0 1008.1 1008.0 0.0
25/05:30am 27.0 - - - - CALM 0 2 0 1 1007.7 1007.6 0.0
25/05:00am 27.2 - - - - CALM 0 0 0 0 1007.3 1007.2 0.0
25/04:30am 27.1 - - - - CALM 0 0 0 0 1007.0 1006.9 0.0
25/04:00am 27.1 - - - - SSE 2 2 1 1 1007.0 1006.9 0.0
25/03:30am 27.1 - - - - CALM 0 4 0 2 1007.5 1007.4 0.0
25/03:00am 27.1 - - - - CALM 0 0 0 0 1007.8 1007.7 0.0
25/02:30am 27.3 - - - - CALM 0 0 0 0 1008.3 1008.2 0.0
25/02:00am 27.4 - - - - CALM 0 0 0 0 1008.6 1008.5 0.0
25/01:30am 27.6 - - - - CALM 0 2 0 1 1008.1 1008.0 0.0
25/01:00am 27.8 - - - - SSE 2 2 1 1 1008.2 1008.1 0.0
25/12:30am 28.0 - - - - SSE 2 4 1 2 1008.6 1008.5 0.0
25/12:00am 28.1 - - - - SSE 2 4 1 2 1008.9 1008.8 0.0
 
Date/Time
EST
Temp
°C
App
Temp
°C
Dew
Point
°C
Rel
Hum
%
Delta-T
°C
Wind Press
QNH
hPa
Press
MSL
hPa
Rain since
9am
mm
Dir  Spd
km/h
Gust
km/h
Spd
kts
Gust
kts
24/11:30pm 28.2 - - - - SSE 2 4 1 2 1009.2 1009.1 0.0
24/11:00pm 28.3 - - - - SSE 2 4 1 2 1009.6 1009.5 0.0
24/10:30pm 28.4 - - - - SSE 2 4 1 2 1009.5 1009.4 0.0
24/10:00pm 28.4 - - - - SSE 2 4 1 2 1009.2 1009.1 0.0
24/09:30pm 28.5 - - - - SSE 2 6 1 3 1009.2 1009.1 0.0
24/09:00pm 28.6 - - - - SSE 2 7 1 4 1009.3 1009.2 0.0
24/08:30pm 28.6 - - - - ESE 2 9 1 5 1009.2 1009.1 0.0
24/08:00pm 28.6 - - - - SE 2 6 1 3 1009.1 1009.0 0.0
24/07:30pm 28.6 - - - - SE 4 7 2 4 1008.8 1008.7 0.0
24/07:00pm 29.4 - - - - SSE 2 6 1 3 1008.3 1008.2 0.0
24/06:30pm 30.0 - - - - SE 2 4 1 2 1007.6 1007.5 0.0
24/06:00pm 31.1 - - - - SSE 4 9 2 5 1006.9 1006.8 0.0
24/05:30pm 31.4 - - - - SE 2 6 1 3 1006.5 1006.4 0.0
24/05:00pm 32.2 - - - - SE 4 9 2 5 1006.6 1006.5 0.0
24/04:30pm 32.6 - - - - SE 2 6 1 3 1006.7 1006.6 0.0
24/04:00pm 32.9 - - - - SE 6 9 3 5 1007.2 1007.1 0.0
24/03:30pm 33.1 - - - - SE 4 6 2 3 1007.0 1006.9 0.0
24/03:00pm 33.3 - - - - SE 4 11 2 6 1007.6 1007.5 0.0
24/02:30pm 33.8 - - - - SE 4 7 2 4 1007.9 1007.8 0.0
24/02:00pm 34.3 - - - - SE 4 9 2 5 1008.2 1008.1 0.0
24/01:30pm 34.4 - - - - SE 4 7 2 4 1008.8 1008.7 0.0
24/01:00pm 34.5 - - - - SE 4 11 2 6 1009.1 1009.0 0.0
24/12:30pm 34.5 - - - - ESE 2 4 1 2 1009.6 1009.5 0.0
24/12:00pm 34.6 - - - - SE 2 7 1 4 1010.2 1010.1 0.0
24/11:30am 34.1 - - - - SE 2 6 1 3 1010.4 1010.3 0.0
24/11:00am 34.2 - - - - SE 2 9 1 5 1010.6 1010.5 0.0
24/10:30am 32.9 - - - - SE 4 6 2 3 1010.7 1010.6 0.0
24/10:00am 32.7 - - - - SE 4 9 2 5 1010.9 1010.8 0.0
24/09:30am 32.1 - - - - SE 4 7 2 4 1010.9 1010.8 0.0
24/09:00am 31.2 - - - - SE 4 6 2 3 1011.1 1011.0 0.0
24/08:30am 30.0 - - - - SE 4 7 2 4 1011.1 1011.0 0.0
24/08:00am 28.3 - - - - SSE 2 6 1 3 1011.0 1010.9 0.0
24/07:30am 27.7 - - - - SSE 2 4 1 2 1010.7 1010.6 0.0
24/07:00am 27.1 - - - - CALM 0 4 0 2 1010.6 1010.5 0.0
24/06:30am 26.8 - - - - SE 2 6 1 3 1010.3 1010.2 0.0
24/06:00am 26.8 - - - - SSE 2 6 1 3 1009.8 1009.7 0.0
24/05:30am 26.9 - - - - SSE 2 6 1 3 1009.3 1009.2 0.0
24/05:00am 26.9 - - - - CALM 0 4 0 2 1009.1 1009.0 0.0
24/04:30am 26.9 - - - - SSE 2 6 1 3 1009.1 1009.0 0.0
24/04:00am 27.0 - - - - SSE 2 6 1 3 1009.0 1008.9 0.0
24/03:30am 27.3 - - - - CALM 0 4 0 2 1009.0 1008.9 0.0
24/03:00am 27.4 - - - - SSE 2 4 1 2 1009.0 1008.9 0.0
24/02:30am 27.5 - - - - SSE 2 4 1 2 1009.2 1009.1 0.0
24/02:00am 27.5 - - - - SE 2 7 1 4 1009.5 1009.4 0.0
24/01:30am 27.6 - - - - SSE 2 6 1 3 1009.9 1009.8 0.0
24/01:00am 27.7 - - - - SE 4 11 2 6 1010.2 1010.1 0.0
24/12:30am 27.8 - - - - SE 4 9 2 5 1010.4 1010.3 0.0
24/12:00am 28.0 - - - - SE 4 11 2 6 1010.9 1010.8 0.0
 
Date/Time
EST
Temp
°C
App
Temp
°C
Dew
Point
°C
Rel
Hum
%
Delta-T
°C
Wind Press
QNH
hPa
Press
MSL
hPa
Rain since
9am
mm
Dir  Spd
km/h
Gust
km/h
Spd
kts
Gust
kts
23/11:30pm 28.1 - - - - SE 4 11 2 6 1011.2 1011.1 0.0
23/11:00pm 28.1 - - - - ESE 6 15 3 8 1011.2 1011.1 0.0
23/10:30pm 28.2 - - - - SE 6 11 3 6 1011.1 1011.0 0.0
23/10:00pm 28.3 - - - - SE 6 13 3 7 1010.9 1010.8 0.0
23/09:30pm 28.4 - - - - SE 6 13 3 7 1010.7 1010.6 0.0
23/09:00pm 28.5 - - - - SE 6 11 3 6 1010.3 1010.2 0.0
23/08:30pm 28.3 - - - - ESE 6 13 3 7 1010.1 1010.0 0.0

Other Formats:

Comma delimited format used in spreadsheet applications
http://www.bom.gov.au/fwo/IDQ60801/IDQ60801.94182.axf

JavaScript Object Notation format (JSON) in row-major order
http://www.bom.gov.au/fwo/IDQ60801/IDQ60801.94182.json